Time;durP1;ratioP1;P1;durP2;ratioP2;P2;SDS_P1;SDS_P2;PMS_P1;PMS_P2;Temp;Humidity;BMP_temperature;BMP_pressure;BME280_temperature;BME280_humidity;BME280_pressure;Samples;Min_cycle;Max_cycle;Signal;HPM_P1;HPM_P2
2022/07/11 00:01:34;;;;;;;4.25;3.30;;;23.40;77.40;;;;;;4996421;28;20026;-72
2022/07/11 00:04:00;;;;;;;3.63;3.05;;;23.40;77.40;;;;;;5013726;28;20471;-72
2022/07/11 00:06:26;;;;;;;5.63;3.60;;;23.40;77.50;;;;;;5014225;28;20026;-72
2022/07/11 00:08:51;;;;;;;6.78;4.03;;;23.40;77.50;;;;;;5014142;28;20025;-72
2022/07/11 00:11:17;;;;;;;3.53;3.03;;;23.40;77.50;;;;;;5013741;28;20069;-73
2022/07/11 00:13:42;;;;;;;4.80;3.50;;;23.30;77.70;;;;;;5013854;28;20483;-72
2022/07/11 00:16:08;;;;;;;5.40;3.60;;;23.30;77.70;;;;;;5013804;28;20033;-72
2022/07/11 00:18:33;;;;;;;6.82;3.15;;;23.30;77.70;;;;;;5013770;28;20041;-72
2022/07/11 00:21:00;;;;;;;6.65;4.22;;;23.30;77.80;;;;;;5013803;28;20025;-72
2022/07/11 00:23:26;;;;;;;4.93;3.65;;;23.30;78.60;;;;;;5012223;28;20041;-72
2022/07/11 00:25:52;;;;;;;3.67;3.25;;;23.30;77.90;;;;;;5013271;28;20475;-72
2022/07/11 00:28:17;;;;;;;5.18;3.42;;;23.30;77.90;;;;;;5013221;28;20041;-72
2022/07/11 00:30:43;;;;;;;4.60;3.65;;;23.30;78.00;;;;;;5013422;28;20022;-72
2022/07/11 00:33:09;;;;;;;4.90;3.58;;;23.30;78.00;;;;;;5013251;28;20030;-72
2022/07/11 00:35:34;;;;;;;4.95;3.50;;;23.20;77.90;;;;;;4995765;28;20419;-72
2022/07/11 00:38:00;;;;;;;4.68;3.45;;;23.20;77.90;;;;;;5013607;28;20029;-72
2022/07/11 00:40:26;;;;;;;4.60;3.60;;;23.20;78.00;;;;;;5013578;28;20032;-72
2022/07/11 00:42:51;;;;;;;4.20;3.70;;;23.20;78.00;;;;;;5012815;28;20037;-72
2022/07/11 00:45:17;;;;;;;3.85;3.47;;;23.20;78.10;;;;;;5013273;28;20014;-72
2022/07/11 00:47:43;;;;;;;5.85;3.95;;;23.20;78.20;;;;;;5013221;28;20032;-72
2022/07/11 00:50:09;;;;;;;6.07;4.30;;;23.20;78.40;;;;;;4995667;28;20487;-72
2022/07/11 00:52:35;;;;;;;5.53;4.55;;;23.20;78.40;;;;;;5013604;28;20479;-72
2022/07/11 00:55:02;;;;;;;6.40;5.28;;;23.20;78.60;;;;;;5013380;28;20105;-72
2022/07/11 00:57:27;;;;;;;5.85;4.18;;;23.20;78.60;;;;;;5014030;28;20522;-72
2022/07/11 00:59:53;;;;;;;5.78;4.05;;;23.20;78.70;;;;;;5013706;28;20248;-72
2022/07/11 01:02:19;;;;;;;4.78;4.00;;;23.10;78.80;;;;;;5013011;28;20039;-72
2022/07/11 01:04:44;;;;;;;6.75;5.35;;;23.10;78.80;;;;;;5013197;28;20486;-72
2022/07/11 01:07:10;;;;;;;6.30;5.40;;;23.10;78.90;;;;;;5013234;28;20426;-72
2022/07/11 01:09:36;;;;;;;7.30;5.13;;;23.10;78.90;;;;;;5013303;28;20033;-72
2022/07/11 01:12:01;;;;;;;5.63;4.30;;;23.10;78.90;;;;;;5012969;28;20484;-72
2022/07/11 01:14:27;;;;;;;9.02;5.85;;;23.10;79.10;;;;;;5013039;28;20073;-72
2022/07/11 01:16:53;;;;;;;5.95;4.95;;;23.00;79.20;;;;;;5012742;28;20030;-72
2022/07/11 01:19:18;;;;;;;5.50;3.75;;;23.10;79.20;;;;;;5013170;28;20029;-72
2022/07/11 01:21:49;;;;;;;5.85;4.40;;;23.10;79.20;;;;;;5012900;28;20483;-72
2022/07/11 01:24:15;;;;;;;5.63;4.55;;;23.00;79.30;;;;;;4995428;28;20539;-72
2022/07/11 01:26:42;;;;;;;6.50;5.50;;;23.00;79.30;;;;;;5013027;28;20108;-72
2022/07/11 01:29:13;;;;;;;5.70;5.03;;;23.00;79.30;;;;;;5013138;28;20379;-72
2022/07/11 01:31:41;;;;;;;7.55;6.22;;;23.00;79.30;;;;;;5012657;28;20034;-72
2022/07/11 01:34:07;;;;;;;6.68;5.57;;;23.00;79.50;;;;;;5013003;28;20022;-72
2022/07/11 01:36:33;;;;;;;8.10;6.20;;;23.00;79.50;;;;;;5012964;28;20034;-72
2022/07/11 01:38:59;;;;;;;6.93;5.70;;;22.90;79.60;;;;;;5013087;28;20024;-72
2022/07/11 01:41:25;;;;;;;6.03;5.43;;;22.90;79.60;;;;;;5012897;28;20104;-72
2022/07/11 01:43:51;;;;;;;7.38;5.75;;;23.00;79.50;;;;;;4994839;28;20042;-72
2022/07/11 01:46:17;;;;;;;6.55;5.43;;;22.90;79.50;;;;;;5012682;28;20044;-72
2022/07/11 01:48:43;;;;;;;6.90;5.78;;;22.90;79.50;;;;;;4995682;28;20025;-72
2022/07/11 01:51:09;;;;;;;7.18;5.38;;;22.90;79.30;;;;;;5012826;28;20483;-72
2022/07/11 01:53:35;;;;;;;7.50;5.07;;;22.90;79.20;;;;;;4995380;28;20076;-72
2022/07/11 01:56:01;;;;;;;5.45;4.22;;;22.90;79.10;;;;;;5015793;28;20030;-72
2022/07/11 01:58:29;;;;;;;5.53;5.03;;;22.90;79.10;;;;;;5016046;28;20160;-72
2022/07/11 02:00:54;;;;;;;7.63;6.18;;;22.90;79.40;;;;;;5016489;28;20021;-72
2022/07/11 02:03:20;;;;;;;8.77;6.80;;;22.90;79.80;;;;;;5016597;28;20029;-72
2022/07/11 02:05:45;;;;;;;8.50;7.15;;;22.90;79.90;;;;;;5016773;28;20360;-72
2022/07/11 02:08:13;;;;;;;9.07;6.40;;;22.90;80.00;;;;;;5016095;28;20494;-72
2022/07/11 02:10:44;;;;;;;8.00;7.20;;;22.90;80.10;;;;;;5016016;28;20030;-72
2022/07/11 02:13:12;;;;;;;8.82;7.45;;;22.80;80.20;;;;;;5015826;28;20479;-72
2022/07/11 02:15:39;;;;;;;8.30;7.45;;;22.90;80.20;;;;;;5015987;28;20033;-72
2022/07/11 02:18:05;;;;;;;7.97;7.25;;;22.80;80.40;;;;;;5015943;28;20022;-72
2022/07/11 02:20:32;;;;;;;7.88;7.18;;;22.80;80.30;;;;;;5016219;28;20018;-72
2022/07/11 02:22:58;;;;;;;9.32;6.70;;;22.80;80.30;;;;;;5015706;28;20026;-71
2022/07/11 02:25:24;;;;;;;11.85;9.15;;;22.80;80.30;;;;;;5016009;28;20498;-72
2022/07/11 02:27:50;;;;;;;6.57;5.97;;;22.80;80.50;;;;;;5015484;28;20026;-72
2022/07/11 02:30:15;;;;;;;9.98;7.65;;;22.70;80.50;;;;;;5015878;28;20022;-72
2022/07/11 02:32:42;;;;;;;9.35;8.48;;;22.70;80.50;;;;;;5015736;28;20022;-72
2022/07/11 02:35:08;;;;;;;6.13;5.45;;;22.70;80.50;;;;;;5015796;28;20103;-72
2022/07/11 02:37:34;;;;;;;7.57;6.88;;;22.70;80.60;;;;;;5015574;28;20100;-72
2022/07/11 02:39:59;;;;;;;6.65;5.95;;;22.70;80.60;;;;;;5015676;28;20034;-72
2022/07/11 02:42:25;;;;;;;7.95;7.15;;;22.70;80.70;;;;;;5015249;28;20157;-72
2022/07/11 02:44:51;;;;;;;8.27;7.38;;;22.70;80.70;;;;;;5015526;28;20033;-72
2022/07/11 02:47:16;;;;;;;9.70;7.18;;;22.60;80.70;;;;;;5015344;28;20502;-72
2022/07/11 02:49:42;;;;;;;7.95;6.97;;;22.60;80.80;;;;;;5015568;28;20025;-72
2022/07/11 02:52:08;;;;;;;8.57;5.85;;;22.60;80.70;;;;;;5015451;28;20030;-72
2022/07/11 02:54:34;;;;;;;8.80;7.90;;;22.60;80.80;;;;;;5015511;28;20030;-72
2022/07/11 02:57:00;;;;;;;9.88;8.27;;;22.60;80.80;;;;;;5015063;28;20387;-72
2022/07/11 02:59:26;;;;;;;7.90;7.13;;;22.60;80.90;;;;;;5015131;28;20487;-72
2022/07/11 03:01:52;;;;;;;6.82;6.20;;;22.60;81.00;;;;;;5015273;28;20018;-72
2022/07/11 03:04:17;;;;;;;6.53;5.85;;;22.60;81.10;;;;;;5014931;28;20037;-72
2022/07/11 03:06:43;;;;;;;7.60;6.90;;;22.60;81.20;;;;;;5014621;28;20018;-72
2022/07/11 03:09:09;;;;;;;8.55;6.82;;;22.60;81.30;;;;;;5014928;28;20479;-72
2022/07/11 03:11:35;;;;;;;8.32;6.32;;;22.60;81.10;;;;;;5015032;28;20049;-72
2022/07/11 03:14:01;;;;;;;8.55;7.50;;;22.60;81.10;;;;;;5014768;28;20038;-72
2022/07/11 03:16:30;;;;;;;7.95;7.15;;;22.60;81.30;;;;;;5015361;28;20076;-72
2022/07/11 03:18:57;;;;;;;8.13;6.85;;;22.50;81.30;;;;;;5014934;28;20110;-72
2022/07/11 03:21:24;;;;;;;7.50;6.78;;;22.50;81.40;;;;;;5015026;28;20100;-72
2022/07/11 03:23:49;;;;;;;7.88;7.05;;;22.50;81.50;;;;;;5015084;28;20018;-72
2022/07/11 03:26:16;;;;;;;8.75;7.82;;;22.50;82.30;;;;;;5015005;28;20022;-72
2022/07/11 03:28:41;;;;;;;6.57;5.88;;;22.50;81.70;;;;;;5014811;28;20065;-72
2022/07/11 03:31:07;;;;;;;6.80;5.70;;;22.50;81.70;;;;;;5014719;28;20062;-72
2022/07/11 03:33:33;;;;;;;8.90;7.65;;;22.50;81.60;;;;;;5014462;28;20038;-72
2022/07/11 03:35:59;;;;;;;11.15;7.18;;;22.50;81.70;;;;;;5014396;28;20034;-72
2022/07/11 03:38:24;;;;;;;8.68;7.65;;;22.50;81.90;;;;;;5014537;28;20056;-72
2022/07/11 03:40:50;;;;;;;8.43;6.43;;;22.50;81.80;;;;;;5014223;28;20025;-71
2022/07/11 03:43:16;;;;;;;8.00;7.20;;;22.50;81.90;;;;;;5014220;28;20041;-72
2022/07/11 03:45:41;;;;;;;8.02;6.80;;;22.40;82.00;;;;;;5014391;28;20459;-72
2022/07/11 03:48:08;;;;;;;8.80;7.18;;;22.50;82.20;;;;;;5014475;28;20026;-72
2022/07/11 03:50:34;;;;;;;8.50;6.15;;;22.40;82.20;;;;;;5014149;28;20026;-72
2022/07/11 03:53:00;;;;;;;9.52;8.52;;;22.40;82.20;;;;;;5014324;28;20080;-72
2022/07/11 03:55:25;;;;;;;12.82;8.40;;;22.40;82.20;;;;;;4996655;28;20025;-72
2022/07/11 03:57:51;;;;;;;10.40;7.53;;;22.40;82.10;;;;;;5014170;28;20475;-72
2022/07/11 04:00:17;;;;;;;7.25;6.53;;;22.40;82.30;;;;;;5014032;28;20056;-72
2022/07/11 04:02:43;;;;;;;8.60;7.70;;;22.40;82.40;;;;;;5014199;28;20026;-72
2022/07/11 04:05:08;;;;;;;9.93;8.45;;;22.40;82.40;;;;;;5013766;28;20438;-72
2022/07/11 04:07:34;;;;;;;10.75;7.53;;;22.40;82.50;;;;;;5014303;28;20464;-72
2022/07/11 04:10:00;;;;;;;9.70;8.35;;;22.40;82.40;;;;;;5013590;28;20026;-72
2022/07/11 04:12:26;;;;;;;9.20;8.40;;;22.40;82.60;;;;;;5014127;28;20025;-72
2022/07/11 04:14:51;;;;;;;8.00;6.82;;;22.30;82.70;;;;;;5013981;28;20030;-72
2022/07/11 04:17:17;;;;;;;10.80;8.38;;;22.30;82.80;;;;;;5013658;28;20109;-72
2022/07/11 04:19:42;;;;;;;11.95;8.23;;;22.30;83.00;;;;;;5012931;28;20112;-72
2022/07/11 04:22:08;;;;;;;9.27;8.38;;;22.30;83.30;;;;;;5013957;28;20022;-72
2022/07/11 04:24:34;;;;;;;9.48;7.25;;;22.30;83.20;;;;;;5013615;28;20491;-72
2022/07/11 04:27:00;;;;;;;9.98;8.35;;;22.30;83.40;;;;;;5013697;28;20198;-72
2022/07/11 04:29:25;;;;;;;9.63;8.63;;;22.30;83.60;;;;;;5013427;28;20018;-72
2022/07/11 04:31:51;;;;;;;8.35;7.55;;;22.30;83.50;;;;;;5013690;28;20100;-72
2022/07/11 04:34:17;;;;;;;8.93;8.02;;;22.30;83.50;;;;;;5013728;28;20108;-72
2022/07/11 04:36:44;;;;;;;8.70;7.88;;;22.30;83.80;;;;;;5013392;28;20085;-72
2022/07/11 04:39:10;;;;;;;7.88;7.10;;;22.20;83.80;;;;;;5013520;28;20026;-72
2022/07/11 04:41:35;;;;;;;9.10;7.78;;;22.30;83.70;;;;;;5013735;28;20105;-72
2022/07/11 04:44:01;;;;;;;9.20;8.32;;;22.20;84.00;;;;;;5013997;28;20042;-72
2022/07/11 04:46:26;;;;;;;8.00;7.30;;;22.30;84.10;;;;;;5013764;28;20065;-72
2022/07/11 04:48:52;;;;;;;8.75;7.03;;;22.30;84.00;;;;;;5013563;28;20041;-72
2022/07/11 04:51:18;;;;;;;9.32;8.02;;;22.20;84.20;;;;;;5013292;28;20064;-73
2022/07/11 04:53:44;;;;;;;8.85;7.88;;;22.20;84.30;;;;;;5013292;28;20034;-72
2022/07/11 04:56:09;;;;;;;9.20;8.30;;;22.10;84.60;;;;;;5014512;28;20038;-73
2022/07/11 04:58:36;;;;;;;9.63;8.70;;;22.20;84.60;;;;;;5014144;28;20037;-73
2022/07/11 05:01:02;;;;;;;10.02;7.80;;;22.10;85.00;;;;;;5012219;28;20022;-73
2022/07/11 05:03:28;;;;;;;12.00;8.25;;;22.10;84.60;;;;;;5012685;28;20053;-72
2022/07/11 05:05:53;;;;;;;9.35;8.45;;;22.20;84.60;;;;;;5012719;28;20111;-73
2022/07/11 05:08:19;;;;;;;8.25;7.45;;;22.20;84.80;;;;;;4994345;28;20025;-72
2022/07/11 05:10:45;;;;;;;10.85;9.75;;;22.20;84.60;;;;;;5012685;28;20531;-72
2022/07/11 05:13:10;;;;;;;8.25;7.45;;;22.20;84.80;;;;;;5012967;28;20026;-72
2022/07/11 05:15:37;;;;;;;11.32;9.07;;;22.20;84.30;;;;;;5013074;28;20104;-72
2022/07/11 05:18:03;;;;;;;9.48;8.57;;;22.10;84.50;;;;;;5013732;28;20026;-72
2022/07/11 05:20:28;;;;;;;13.35;8.38;;;22.10;84.80;;;;;;5013793;28;20077;-72
2022/07/11 05:22:54;;;;;;;9.15;7.70;;;22.20;84.70;;;;;;4995432;28;20157;-72
2022/07/11 05:25:19;;;;;;;9.85;8.10;;;22.20;84.70;;;;;;5013199;28;20022;-72
2022/07/11 05:27:45;;;;;;;9.70;8.38;;;22.20;84.80;;;;;;5012980;28;20024;-73
2022/07/11 05:30:10;;;;;;;10.15;9.25;;;22.20;84.80;;;;;;5015088;28;20022;-72
2022/07/11 05:32:36;;;;;;;11.02;9.30;;;22.20;84.90;;;;;;5016779;28;20029;-72
2022/07/11 05:35:03;;;;;;;11.50;10.40;;;22.20;85.30;;;;;;5016783;28;20475;-72
2022/07/11 05:37:29;;;;;;;10.20;9.20;;;22.20;85.20;;;;;;5016382;28;20034;-73
2022/07/11 05:39:55;;;;;;;10.23;7.47;;;22.20;85.20;;;;;;5016697;28;20156;-72
2022/07/11 05:42:21;;;;;;;10.93;9.68;;;22.20;85.10;;;;;;5016828;28;20040;-72
2022/07/11 05:44:49;;;;;;;9.45;8.52;;;22.20;85.10;;;;;;5016534;28;20034;-73
2022/07/11 05:47:14;;;;;;;8.70;7.90;;;22.20;85.30;;;;;;5016245;28;20030;-72
2022/07/11 05:49:40;;;;;;;7.80;6.95;;;22.20;85.50;;;;;;5016820;28;20041;-72
2022/07/11 05:52:06;;;;;;;8.05;7.25;;;22.20;85.90;;;;;;5016188;28;20101;-72
2022/07/11 05:54:31;;;;;;;6.95;6.25;;;22.20;86.50;;;;;;5016853;28;20045;-72
2022/07/11 05:56:57;;;;;;;10.23;7.05;;;22.20;85.90;;;;;;5016271;28;20056;-72
2022/07/11 05:59:23;;;;;;;8.23;6.97;;;22.20;86.20;;;;;;5016471;28;20032;-73
2022/07/11 06:01:48;;;;;;;9.13;7.57;;;22.30;86.50;;;;;;5016230;28;20022;-72
2022/07/11 06:04:14;;;;;;;7.95;6.55;;;22.40;85.80;;;;;;5016424;28;20026;-72
2022/07/11 06:06:40;;;;;;;10.52;9.40;;;22.50;85.70;;;;;;5016196;28;20026;-72
2022/07/11 06:09:06;;;;;;;10.35;9.30;;;22.40;85.70;;;;;;5016102;28;20505;-72
2022/07/11 06:11:32;;;;;;;11.50;9.48;;;22.40;85.20;;;;;;5016013;28;20037;-72
2022/07/11 06:13:58;;;;;;;14.35;12.95;;;22.50;85.80;;;;;;5016053;28;20021;-72
2022/07/11 06:16:24;;;;;;;17.40;14.55;;;22.50;86.80;;;;;;5016221;28;20030;-72
2022/07/11 06:18:50;;;;;;;16.77;15.02;;;22.40;87.40;;;;;;5016079;28;20026;-72
2022/07/11 06:21:16;;;;;;;20.15;17.63;;;22.50;87.80;;;;;;5015977;28;20028;-72
2022/07/11 06:23:42;;;;;;;18.85;16.85;;;22.50;87.90;;;;;;5015864;28;20029;-72
2022/07/11 06:26:08;;;;;;;14.73;13.32;;;22.50;87.60;;;;;;5015953;28;20022;-72
2022/07/11 06:28:34;;;;;;;15.85;14.23;;;22.60;86.20;;;;;;5016204;28;20404;-72
2022/07/11 06:31:00;;;;;;;16.50;14.80;;;22.60;85.80;;;;;;5015829;28;20469;-72
2022/07/11 06:33:26;;;;;;;17.52;15.70;;;22.70;86.50;;;;;;5015792;28;20088;-72
2022/07/11 06:35:51;;;;;;;24.95;18.73;;;22.70;86.30;;;;;;5015931;28;20018;-73
2022/07/11 06:38:18;;;;;;;29.10;26.00;;;22.70;86.00;;;;;;5015983;28;20029;-72
2022/07/11 06:40:45;;;;;;;24.02;21.58;;;22.60;87.10;;;;;;5015336;28;20018;-72
2022/07/11 06:43:11;;;;;;;19.38;17.52;;;22.70;87.30;;;;;;5014976;28;20673;-72
2022/07/11 06:45:37;;;;;;;14.98;13.50;;;22.70;86.70;;;;;;5015617;28;20024;-72
2022/07/11 06:48:04;;;;;;;17.98;16.10;;;22.70;86.60;;;;;;4997832;28;20037;-73
2022/07/11 06:50:30;;;;;;;16.75;15.13;;;22.70;86.50;;;;;;5015326;28;20383;-72
2022/07/11 06:52:56;;;;;;;14.02;12.68;;;22.80;85.90;;;;;;5015465;28;20022;-73
2022/07/11 06:55:22;;;;;;;13.25;12.05;;;22.80;85.30;;;;;;5007379;28;20092;-72
2022/07/11 06:57:49;;;;;;;10.95;9.95;;;22.90;84.90;;;;;;5015275;28;20475;-72
2022/07/11 07:00:15;;;;;;;11.23;10.10;;;22.90;84.80;;;;;;5015176;28;20069;-72
2022/07/11 07:02:42;;;;;;;12.77;11.57;;;22.90;84.50;;;;;;5015471;28;20034;-72
2022/07/11 07:05:09;;;;;;;9.88;8.88;;;23.00;84.30;;;;;;5014995;28;20109;-72
2022/07/11 07:07:34;;;;;;;10.00;9.00;;;23.00;83.80;;;;;;5015337;28;20052;-72
2022/07/11 07:10:00;;;;;;;10.50;9.48;;;23.10;83.30;;;;;;5015020;28;20395;-72
2022/07/11 07:12:26;;;;;;;10.45;9.45;;;23.10;83.20;;;;;;5015114;28;20108;-72
2022/07/11 07:14:51;;;;;;;9.00;8.07;;;23.10;82.60;;;;;;5015165;28;20017;-72
2022/07/11 07:17:17;;;;;;;9.70;8.75;;;23.20;82.30;;;;;;5015802;28;20030;-72
2022/07/11 07:19:43;;;;;;;9.95;9.05;;;23.20;82.30;;;;;;5015619;28;20475;-72
2022/07/11 07:22:09;;;;;;;9.15;8.30;;;23.20;82.20;;;;;;5015608;28;20156;-72
2022/07/11 07:24:38;;;;;;;10.70;9.80;;;23.30;82.00;;;;;;5015014;28;20109;-73
2022/07/11 07:27:04;;;;;;;12.45;11.32;;;23.30;81.90;;;;;;5014864;28;20026;-72
2022/07/11 07:29:30;;;;;;;14.32;13.02;;;23.30;81.70;;;;;;5014819;28;20028;-72
2022/07/11 07:31:56;;;;;;;11.70;10.52;;;23.40;81.70;;;;;;5014560;28;20029;-72
2022/07/11 07:34:22;;;;;;;8.10;7.30;;;23.40;81.70;;;;;;5006630;28;20022;-72
2022/07/11 07:36:47;;;;;;;10.73;9.73;;;23.40;81.40;;;;;;5014635;28;20458;-72
2022/07/11 07:39:13;;;;;;;9.25;8.45;;;23.50;81.10;;;;;;5014643;28;20054;-72
2022/07/11 07:41:38;;;;;;;7.47;6.80;;;23.50;80.90;;;;;;5014647;28;20387;-73
2022/07/11 07:44:04;;;;;;;10.65;9.60;;;23.60;80.50;;;;;;5014172;28;20072;-73
2022/07/11 07:46:30;;;;;;;10.52;9.50;;;23.60;80.90;;;;;;5013967;28;20034;-72
2022/07/11 07:48:56;;;;;;;8.60;7.70;;;23.60;80.40;;;;;;5014260;28;20030;-72
2022/07/11 07:51:22;;;;;;;6.85;5.90;;;23.60;80.30;;;;;;5014327;28;20018;-72
2022/07/11 07:53:48;;;;;;;8.25;7.47;;;23.70;80.00;;;;;;5014007;28;20056;-72
2022/07/11 07:56:13;;;;;;;7.18;6.18;;;23.70;79.80;;;;;;5014233;28;20025;-72
2022/07/11 07:58:39;;;;;;;5.47;4.97;;;23.70;79.80;;;;;;5014281;28;20040;-73
2022/07/11 08:03:50;;;;;;;7.80;7.10;;;23.70;79.40;;;;;;5014153;28;20125;-72
2022/07/11 08:06:15;;;;;;;6.07;5.47;;;23.80;79.40;;;;;;5013996;28;20053;-72
2022/07/11 08:08:41;;;;;;;6.60;6.03;;;23.70;79.00;;;;;;4996599;28;20073;-72
2022/07/11 08:11:07;;;;;;;8.32;7.65;;;23.80;79.10;;;;;;5013946;28;20383;-72
2022/07/11 08:13:33;;;;;;;7.55;6.75;;;23.80;78.80;;;;;;5014031;28;20034;-72
2022/07/11 08:15:58;;;;;;;6.15;5.55;;;23.80;78.70;;;;;;5013515;28;20080;-72
2022/07/11 08:18:24;;;;;;;5.55;5.03;;;23.80;78.60;;;;;;5013813;28;20030;-72
2022/07/11 08:20:49;;;;;;;6.97;6.38;;;23.90;78.40;;;;;;5013825;28;20426;-72
2022/07/11 08:23:15;;;;;;;6.80;4.88;;;23.90;78.30;;;;;;5013769;28;20030;-72
2022/07/11 08:25:41;;;;;;;5.90;5.38;;;24.00;78.10;;;;;;5013846;28;20024;-72
2022/07/11 08:28:06;;;;;;;5.45;5.00;;;24.00;78.10;;;;;;5014017;28;20470;-72
2022/07/11 08:30:32;;;;;;;5.55;5.05;;;23.90;77.90;;;;;;5013415;28;20483;-72
2022/07/11 08:32:58;;;;;;;7.30;6.70;;;24.00;77.80;;;;;;5013739;28;20117;-72
2022/07/11 08:35:24;;;;;;;6.13;5.63;;;24.00;77.80;;;;;;5013270;28;20036;-72
2022/07/11 08:37:49;;;;;;;5.85;5.32;;;24.00;77.80;;;;;;5013559;28;20037;-72
2022/07/11 08:40:15;;;;;;;5.13;4.35;;;24.00;77.70;;;;;;5013033;28;20022;-72
2022/07/11 08:42:43;;;;;;;5.43;5.00;;;24.00;77.60;;;;;;5013562;28;20028;-72
2022/07/11 08:45:13;;;;;;;5.20;4.30;;;24.00;77.50;;;;;;5013069;28;20033;-72
2022/07/11 08:47:41;;;;;;;5.18;4.78;;;24.00;77.30;;;;;;5013461;28;20109;-72
2022/07/11 08:50:09;;;;;;;5.95;5.22;;;24.10;77.20;;;;;;5013847;28;20030;-72
2022/07/11 08:52:36;;;;;;;5.35;4.57;;;24.10;77.30;;;;;;5016186;28;20077;-72
2022/07/11 08:55:06;;;;;;;5.32;4.85;;;24.10;77.20;;;;;;5013957;28;20025;-72
2022/07/11 08:57:36;;;;;;;5.00;4.60;;;24.10;77.00;;;;;;5013191;28;20487;-72
2022/07/11 09:00:05;;;;;;;5.18;4.70;;;24.10;77.00;;;;;;5013282;28;20021;-72
2022/07/11 09:02:32;;;;;;;5.55;4.88;;;24.20;76.80;;;;;;5013183;28;20022;-72
2022/07/11 09:04:58;;;;;;;5.53;5.03;;;24.20;76.90;;;;;;5017175;28;20033;-72
2022/07/11 09:07:23;;;;;;;5.40;4.93;;;24.20;76.80;;;;;;5019600;28;20025;-72
2022/07/11 09:09:49;;;;;;;6.18;5.57;;;24.20;76.80;;;;;;5019923;28;20018;-72
2022/07/11 09:12:16;;;;;;;5.75;5.32;;;24.20;76.80;;;;;;5019867;28;20070;-72
2022/07/11 09:14:49;;;;;;;4.90;4.47;;;24.20;76.80;;;;;;5019509;28;20043;-72
2022/07/11 09:17:15;;;;;;;5.45;4.60;;;24.20;76.70;;;;;;5018221;28;20038;-72
2022/07/11 09:19:41;;;;;;;6.70;4.53;;;24.20;76.40;;;;;;5001972;28;20026;-72
2022/07/11 09:27:41;;;;;;;5.32;4.93;;;24.30;76.40;;;;;;5019547;28;20040;-73
2022/07/11 09:30:18;;;;;;;5.20;4.80;;;24.30;76.30;;;;;;5019247;28;20096;-72
2022/07/11 09:33:06;;;;;;;5.35;4.93;;;24.30;76.20;;;;;;5019229;28;20030;-72
2022/07/11 09:35:37;;;;;;;9.30;8.50;;;24.30;76.20;;;;;;5019591;28;20022;-73
2022/07/11 09:38:06;;;;;;;11.32;10.32;;;24.50;76.90;;;;;;5019500;28;20033;-72
2022/07/11 09:40:32;;;;;;;12.13;5.80;;;24.70;76.70;;;;;;5019415;28;20510;-72
2022/07/11 09:43:00;;;;;;;10.98;5.70;;;24.60;75.70;;;;;;5018931;28;20605;-72
2022/07/11 09:45:30;;;;;;;8.02;5.30;;;24.40;75.90;;;;;;5019675;28;20104;-72
2022/07/11 09:48:07;;;;;;;6.65;5.10;;;24.40;76.00;;;;;;5019364;28;20176;-72
2022/07/11 09:50:32;;;;;;;6.10;5.30;;;24.50;76.10;;;;;;5019282;28;20022;-71
2022/07/11 09:53:02;;;;;;;6.25;5.65;;;24.40;76.10;;;;;;5019259;28;20044;-73
2022/07/11 09:55:50;;;;;;;8.65;6.80;;;24.40;76.20;;;;;;5019417;28;20034;-72
2022/07/11 09:58:16;;;;;;;7.90;5.57;;;24.40;76.10;;;;;;5018904;28;20046;-72
2022/07/11 10:00:44;;;;;;;5.35;4.95;;;24.40;76.10;;;;;;5019529;28;20032;-72
2022/07/11 10:03:11;;;;;;;6.45;5.95;;;24.40;76.20;;;;;;5019165;28;20026;-73
2022/07/11 10:05:38;;;;;;;5.90;5.30;;;24.40;76.30;;;;;;5018233;28;20030;-72
2022/07/11 10:08:04;;;;;;;6.25;5.70;;;24.40;76.10;;;;;;5019062;28;20033;-72
2022/07/11 10:10:32;;;;;;;7.18;4.90;;;24.40;76.30;;;;;;5019170;28;20034;-72
2022/07/11 10:12:58;;;;;;;8.10;4.93;;;24.40;76.50;;;;;;5018857;28;20029;-72
2022/07/11 10:15:34;;;;;;;6.63;6.03;;;24.40;76.50;;;;;;5018489;28;20407;-72
2022/07/11 10:18:03;;;;;;;8.13;6.88;;;24.40;76.50;;;;;;5015962;28;20108;-72
2022/07/11 10:20:34;;;;;;;6.32;5.78;;;24.60;76.30;;;;;;5016237;28;20105;-72
2022/07/11 10:23:14;;;;;;;5.53;5.05;;;24.60;76.10;;;;;;5015694;28;20030;-72
2022/07/11 10:25:57;;;;;;;8.10;5.57;;;24.50;76.20;;;;;;5015740;28;20018;-72
2022/07/11 10:28:45;;;;;;;7.50;6.88;;;24.60;76.40;;;;;;5015876;28;20026;-72
2022/07/11 10:31:21;;;;;;;7.18;6.47;;;24.60;75.90;;;;;;5015943;28;20033;-73
2022/07/11 10:34:06;;;;;;;7.00;6.30;;;24.70;75.80;;;;;;5015484;28;20021;-73
2022/07/11 10:36:33;;;;;;;6.10;5.60;;;24.70;76.10;;;;;;5015837;28;20077;-73
2022/07/11 10:39:34;;;;;;;7.68;6.95;;;24.60;76.10;;;;;;5015556;28;20021;-73
2022/07/11 10:42:02;;;;;;;7.30;6.60;;;24.70;76.80;;;;;;4955649;28;20042;-72
2022/07/11 10:44:48;;;;;;;6.80;5.72;;;24.70;76.20;;;;;;4997992;28;20076;-72
2022/07/11 10:47:50;;;;;;;6.18;5.57;;;24.70;76.30;;;;;;5015366;28;20018;-72
2022/07/11 10:50:28;;;;;;;9.10;6.78;;;24.70;76.30;;;;;;5015660;28;20105;-72
2022/07/11 10:53:00;;;;;;;6.43;5.80;;;24.70;76.90;;;;;;5015547;28;20144;-72
2022/07/11 10:55:28;;;;;;;7.07;5.87;;;24.70;76.80;;;;;;5015141;28;20026;-73
2022/07/11 10:58:08;;;;;;;8.43;7.63;;;24.80;77.50;;;;;;5015191;28;20033;-73
2022/07/11 11:00:34;;;;;;;9.73;8.55;;;24.90;76.80;;;;;;5015237;28;20468;-72
2022/07/11 11:03:11;;;;;;;7.97;6.68;;;24.80;76.30;;;;;;5015347;28;20033;-72
2022/07/11 11:05:47;;;;;;;6.75;5.95;;;24.80;76.90;;;;;;5015001;28;20018;-72
2022/07/11 11:08:40;;;;;;;5.78;5.28;;;24.80;77.00;;;;;;5015179;28;20487;-72
2022/07/11 11:11:06;;;;;;;7.75;6.97;;;24.80;77.50;;;;;;5014813;28;20037;-72
2022/07/11 11:13:37;;;;;;;6.63;6.13;;;24.90;76.00;;;;;;5014728;28;20101;-72
2022/07/11 11:16:19;;;;;;;8.18;7.40;;;24.90;77.00;;;;;;5015017;28;20026;-72
2022/07/11 11:18:45;;;;;;;8.98;6.90;;;24.90;74.40;;;;;;5014790;28;20034;-73
2022/07/11 11:21:11;;;;;;;7.07;6.47;;;24.90;75.10;;;;;;5015090;28;20030;-73
2022/07/11 11:23:37;;;;;;;7.03;5.75;;;25.00;75.00;;;;;;5014665;28;20052;-72
2022/07/11 11:26:16;;;;;;;5.63;5.13;;;25.00;74.30;;;;;;5014642;28;20022;-72
2022/07/11 11:28:56;;;;;;;5.38;4.88;;;24.90;76.10;;;;;;5014232;28;20061;-72
2022/07/11 11:31:23;;;;;;;5.97;5.38;;;24.90;76.70;;;;;;5014955;28;20030;-72
2022/07/11 11:33:48;;;;;;;5.43;4.93;;;24.90;74.80;;;;;;5014691;28;20029;-72
2022/07/11 11:36:20;;;;;;;5.80;4.95;;;24.90;77.20;;;;;;5014520;28;20134;-72
2022/07/11 11:38:46;;;;;;;6.65;5.25;;;24.90;77.30;;;;;;5014291;28;20018;-72
2022/07/11 11:41:21;;;;;;;5.72;5.20;;;24.90;76.50;;;;;;5014662;28;20029;-72
2022/07/11 11:43:47;;;;;;;6.82;4.65;;;24.90;76.60;;;;;;5014345;28;20065;-73
2022/07/11 11:46:13;;;;;;;4.93;4.43;;;24.80;76.90;;;;;;5014597;28;20060;-73
2022/07/11 11:48:45;;;;;;;5.18;4.68;;;24.90;77.50;;;;;;5014736;28;20030;-72
2022/07/11 11:51:15;;;;;;;6.60;4.80;;;24.90;76.80;;;;;;5014318;28;20048;-72
2022/07/11 11:53:45;;;;;;;6.53;4.55;;;24.90;76.90;;;;;;5012892;28;20045;-72
2022/07/11 11:56:34;;;;;;;5.07;4.57;;;24.90;76.80;;;;;;5014272;28;20041;-72
2022/07/11 11:59:07;;;;;;;5.28;4.57;;;24.90;76.60;;;;;;5014817;28;20094;-72
2022/07/11 12:01:35;;;;;;;4.40;4.00;;;24.90;76.20;;;;;;5014618;28;20022;-72
2022/07/11 12:04:07;;;;;;;4.93;4.22;;;24.90;77.20;;;;;;5014446;28;20547;-72
2022/07/11 12:06:42;;;;;;;5.57;4.07;;;24.90;77.40;;;;;;5014439;28;20060;-72
2022/07/11 12:09:19;;;;;;;4.03;3.55;;;24.90;76.80;;;;;;5013931;28;20464;-72
2022/07/11 12:11:47;;;;;;;4.88;4.03;;;24.90;77.20;;;;;;5013644;28;20032;-72
2022/07/11 12:14:15;;;;;;;4.43;3.70;;;24.90;76.90;;;;;;4996435;28;20029;-72
2022/07/11 12:16:42;;;;;;;4.25;3.80;;;24.90;76.80;;;;;;5013815;28;20512;-72
2022/07/11 12:19:14;;;;;;;3.40;3.20;;;24.80;77.00;;;;;;5013843;28;20076;-72
2022/07/11 12:21:45;;;;;;;5.78;3.38;;;24.90;76.90;;;;;;5013714;28;20026;-72
2022/07/11 12:24:26;;;;;;;3.97;3.30;;;24.90;73.20;;;;;;5013610;28;20029;-72
2022/07/11 12:26:52;;;;;;;5.60;3.72;;;25.00;76.00;;;;;;5013630;28;20525;-72
2022/07/11 12:29:22;;;;;;;4.22;3.40;;;24.90;76.20;;;;;;5013555;28;20097;-72
2022/07/11 12:32:10;;;;;;;3.85;3.50;;;24.90;76.20;;;;;;5013774;28;20165;-72
2022/07/11 12:34:35;;;;;;;4.28;3.70;;;24.90;76.60;;;;;;5013594;28;20030;-72
2022/07/11 12:37:21;;;;;;;4.07;3.78;;;24.90;76.90;;;;;;5013227;28;20041;-72
2022/07/11 12:39:51;;;;;;;3.53;3.20;;;24.90;76.80;;;;;;5012149;28;20108;-72
2022/07/11 12:42:34;;;;;;;4.72;2.92;;;24.90;76.30;;;;;;5013835;28;20468;-72
2022/07/11 12:45:08;;;;;;;5.05;3.17;;;25.00;76.00;;;;;;5013375;28;20037;-72
2022/07/11 12:47:40;;;;;;;3.17;2.30;;;24.90;76.40;;;;;;5013513;28;20014;-72
2022/07/11 12:50:22;;;;;;;3.20;2.97;;;25.00;75.50;;;;;;5013300;28;20025;-72
2022/07/11 12:52:51;;;;;;;5.38;3.17;;;25.00;76.10;;;;;;5013219;28;20106;-72
2022/07/11 12:55:28;;;;;;;3.90;3.58;;;25.00;75.80;;;;;;4995732;28;20022;-72